sensor_id;sensor_type;location;lat;lon;timestamp;P1;durP1;ratioP1;P2;durP2;ratioP2
5157;SDS011;2598;52.364;9.772;2023-06-26T00:01:16;9.23;;;6.60;;
5157;SDS011;2598;52.364;9.772;2023-06-26T00:03:45;8.30;;;6.47;;
5157;SDS011;2598;52.364;9.772;2023-06-26T00:06:11;9.47;;;7.30;;
5157;SDS011;2598;52.364;9.772;2023-06-26T00:08:37;9.70;;;7.17;;
5157;SDS011;2598;52.364;9.772;2023-06-26T00:11:03;8.60;;;6.60;;
5157;SDS011;2598;52.364;9.772;2023-06-26T00:13:29;9.00;;;7.23;;
5157;SDS011;2598;52.364;9.772;2023-06-26T00:15:55;9.33;;;6.77;;
5157;SDS011;2598;52.364;9.772;2023-06-26T00:18:21;8.77;;;7.33;;
5157;SDS011;2598;52.364;9.772;2023-06-26T00:20:48;9.13;;;7.10;;
5157;SDS011;2598;52.364;9.772;2023-06-26T00:23:15;9.37;;;7.23;;
5157;SDS011;2598;52.364;9.772;2023-06-26T00:25:41;8.30;;;7.07;;
5157;SDS011;2598;52.364;9.772;2023-06-26T00:28:07;8.23;;;6.53;;
5157;SDS011;2598;52.364;9.772;2023-06-26T00:30:33;8.70;;;6.87;;
5157;SDS011;2598;52.364;9.772;2023-06-26T00:32:59;8.77;;;6.80;;
5157;SDS011;2598;52.364;9.772;2023-06-26T00:35:25;11.20;;;7.00;;
5157;SDS011;2598;52.364;9.772;2023-06-26T00:37:51;9.93;;;6.63;;
5157;SDS011;2598;52.364;9.772;2023-06-26T00:40:17;8.50;;;6.67;;
5157;SDS011;2598;52.364;9.772;2023-06-26T00:42:43;8.60;;;6.43;;
5157;SDS011;2598;52.364;9.772;2023-06-26T00:45:09;9.17;;;7.30;;
5157;SDS011;2598;52.364;9.772;2023-06-26T00:47:35;7.97;;;6.60;;
5157;SDS011;2598;52.364;9.772;2023-06-26T00:50:01;10.23;;;7.37;;
5157;SDS011;2598;52.364;9.772;2023-06-26T00:52:27;8.43;;;6.43;;
5157;SDS011;2598;52.364;9.772;2023-06-26T00:54:53;9.57;;;6.60;;
5157;SDS011;2598;52.364;9.772;2023-06-26T00:57:19;12.57;;;7.37;;
5157;SDS011;2598;52.364;9.772;2023-06-26T00:59:45;10.07;;;7.60;;
5157;SDS011;2598;52.364;9.772;2023-06-26T01:02:11;7.60;;;5.70;;
5157;SDS011;2598;52.364;9.772;2023-06-26T01:04:38;8.57;;;5.93;;
5157;SDS011;2598;52.364;9.772;2023-06-26T01:07:11;10.90;;;6.87;;
5157;SDS011;2598;52.364;9.772;2023-06-26T01:09:37;8.97;;;6.40;;
5157;SDS011;2598;52.364;9.772;2023-06-26T01:12:03;9.20;;;6.50;;
5157;SDS011;2598;52.364;9.772;2023-06-26T01:14:29;8.07;;;6.40;;
5157;SDS011;2598;52.364;9.772;2023-06-26T01:16:55;9.10;;;5.63;;
5157;SDS011;2598;52.364;9.772;2023-06-26T01:19:27;8.93;;;6.80;;
5157;SDS011;2598;52.364;9.772;2023-06-26T01:21:58;9.27;;;6.10;;
5157;SDS011;2598;52.364;9.772;2023-06-26T01:24:27;9.83;;;6.50;;
5157;SDS011;2598;52.364;9.772;2023-06-26T01:26:57;8.10;;;6.03;;
5157;SDS011;2598;52.364;9.772;2023-06-26T01:29:25;14.37;;;6.97;;
5157;SDS011;2598;52.364;9.772;2023-06-26T01:31:51;10.10;;;6.10;;
5157;SDS011;2598;52.364;9.772;2023-06-26T01:34:17;8.53;;;5.90;;
5157;SDS011;2598;52.364;9.772;2023-06-26T01:36:44;11.63;;;6.57;;
5157;SDS011;2598;52.364;9.772;2023-06-26T01:39:10;8.80;;;5.97;;
5157;SDS011;2598;52.364;9.772;2023-06-26T01:41:36;7.77;;;5.43;;
5157;SDS011;2598;52.364;9.772;2023-06-26T01:51:52;8.50;;;6.27;;
5157;SDS011;2598;52.364;9.772;2023-06-26T01:54:20;12.17;;;6.23;;
5157;SDS011;2598;52.364;9.772;2023-06-26T01:56:49;9.37;;;6.33;;
5157;SDS011;2598;52.364;9.772;2023-06-26T01:59:15;9.60;;;5.90;;
5157;SDS011;2598;52.364;9.772;2023-06-26T02:01:43;7.97;;;5.97;;
5157;SDS011;2598;52.364;9.772;2023-06-26T02:04:09;7.87;;;5.97;;
5157;SDS011;2598;52.364;9.772;2023-06-26T02:06:35;9.17;;;6.30;;
5157;SDS011;2598;52.364;9.772;2023-06-26T02:09:01;8.17;;;6.00;;
5157;SDS011;2598;52.364;9.772;2023-06-26T02:11:27;8.97;;;6.40;;
5157;SDS011;2598;52.364;9.772;2023-06-26T02:13:53;8.80;;;6.47;;
5157;SDS011;2598;52.364;9.772;2023-06-26T02:16:19;8.70;;;5.70;;
5157;SDS011;2598;52.364;9.772;2023-06-26T02:18:45;9.27;;;5.80;;
5157;SDS011;2598;52.364;9.772;2023-06-26T02:21:10;7.87;;;5.43;;
5157;SDS011;2598;52.364;9.772;2023-06-26T02:23:36;8.70;;;5.87;;
5157;SDS011;2598;52.364;9.772;2023-06-26T02:26:02;8.90;;;6.27;;
5157;SDS011;2598;52.364;9.772;2023-06-26T02:28:28;8.27;;;6.50;;
5157;SDS011;2598;52.364;9.772;2023-06-26T02:30:56;10.20;;;5.93;;
5157;SDS011;2598;52.364;9.772;2023-06-26T02:33:22;9.57;;;6.53;;
5157;SDS011;2598;52.364;9.772;2023-06-26T02:35:48;8.33;;;6.33;;
5157;SDS011;2598;52.364;9.772;2023-06-26T02:38:15;9.83;;;6.60;;
5157;SDS011;2598;52.364;9.772;2023-06-26T02:40:41;7.97;;;6.03;;
5157;SDS011;2598;52.364;9.772;2023-06-26T02:43:07;8.90;;;5.83;;
5157;SDS011;2598;52.364;9.772;2023-06-26T02:45:33;10.57;;;5.97;;
5157;SDS011;2598;52.364;9.772;2023-06-26T02:47:59;10.00;;;6.23;;
5157;SDS011;2598;52.364;9.772;2023-06-26T02:50:24;8.50;;;5.70;;
5157;SDS011;2598;52.364;9.772;2023-06-26T02:52:50;7.80;;;5.73;;
5157;SDS011;2598;52.364;9.772;2023-06-26T02:55:17;10.47;;;5.80;;
5157;SDS011;2598;52.364;9.772;2023-06-26T02:57:44;9.20;;;6.43;;
5157;SDS011;2598;52.364;9.772;2023-06-26T03:00:10;8.73;;;5.90;;
5157;SDS011;2598;52.364;9.772;2023-06-26T03:02:36;7.70;;;5.87;;
5157;SDS011;2598;52.364;9.772;2023-06-26T03:05:02;8.80;;;6.27;;
5157;SDS011;2598;52.364;9.772;2023-06-26T03:07:29;8.60;;;5.50;;
5157;SDS011;2598;52.364;9.772;2023-06-26T03:09:55;9.00;;;6.30;;
5157;SDS011;2598;52.364;9.772;2023-06-26T03:12:21;10.80;;;6.10;;
5157;SDS011;2598;52.364;9.772;2023-06-26T03:14:47;8.43;;;5.20;;
5157;SDS011;2598;52.364;9.772;2023-06-26T03:17:13;10.03;;;6.20;;
5157;SDS011;2598;52.364;9.772;2023-06-26T03:19:39;7.93;;;5.23;;
5157;SDS011;2598;52.364;9.772;2023-06-26T03:22:04;9.17;;;6.27;;
5157;SDS011;2598;52.364;9.772;2023-06-26T03:24:30;8.23;;;5.53;;
5157;SDS011;2598;52.364;9.772;2023-06-26T03:26:56;8.20;;;5.43;;
5157;SDS011;2598;52.364;9.772;2023-06-26T03:29:22;8.47;;;5.07;;
5157;SDS011;2598;52.364;9.772;2023-06-26T03:31:48;8.17;;;5.00;;
5157;SDS011;2598;52.364;9.772;2023-06-26T03:34:14;9.73;;;6.53;;
5157;SDS011;2598;52.364;9.772;2023-06-26T03:36:40;8.47;;;5.63;;
5157;SDS011;2598;52.364;9.772;2023-06-26T03:39:06;8.27;;;5.33;;
5157;SDS011;2598;52.364;9.772;2023-06-26T03:41:32;8.00;;;5.60;;
5157;SDS011;2598;52.364;9.772;2023-06-26T03:43:58;8.10;;;5.50;;
5157;SDS011;2598;52.364;9.772;2023-06-26T03:46:25;9.77;;;5.43;;
5157;SDS011;2598;52.364;9.772;2023-06-26T03:48:51;8.20;;;5.30;;
5157;SDS011;2598;52.364;9.772;2023-06-26T03:51:17;8.63;;;5.20;;
5157;SDS011;2598;52.364;9.772;2023-06-26T03:53:43;9.60;;;5.20;;
5157;SDS011;2598;52.364;9.772;2023-06-26T03:56:09;7.90;;;5.67;;
5157;SDS011;2598;52.364;9.772;2023-06-26T03:58:35;9.23;;;5.63;;
5157;SDS011;2598;52.364;9.772;2023-06-26T04:01:01;9.10;;;5.57;;
5157;SDS011;2598;52.364;9.772;2023-06-26T04:03:27;8.57;;;5.30;;
5157;SDS011;2598;52.364;9.772;2023-06-26T04:05:52;8.43;;;5.30;;
5157;SDS011;2598;52.364;9.772;2023-06-26T04:08:18;7.50;;;5.37;;
5157;SDS011;2598;52.364;9.772;2023-06-26T04:10:45;6.93;;;4.90;;
5157;SDS011;2598;52.364;9.772;2023-06-26T04:13:12;9.70;;;5.20;;
5157;SDS011;2598;52.364;9.772;2023-06-26T04:15:39;8.30;;;5.23;;
5157;SDS011;2598;52.364;9.772;2023-06-26T04:18:04;7.80;;;5.47;;
5157;SDS011;2598;52.364;9.772;2023-06-26T04:20:30;8.33;;;5.30;;
5157;SDS011;2598;52.364;9.772;2023-06-26T04:22:56;8.67;;;5.57;;
5157;SDS011;2598;52.364;9.772;2023-06-26T04:25:22;7.37;;;5.47;;
5157;SDS011;2598;52.364;9.772;2023-06-26T04:27:48;8.27;;;5.43;;
5157;SDS011;2598;52.364;9.772;2023-06-26T04:30:14;8.80;;;5.73;;
5157;SDS011;2598;52.364;9.772;2023-06-26T04:32:40;8.83;;;5.90;;
5157;SDS011;2598;52.364;9.772;2023-06-26T04:35:06;9.53;;;5.50;;
5157;SDS011;2598;52.364;9.772;2023-06-26T04:37:32;9.63;;;5.73;;
5157;SDS011;2598;52.364;9.772;2023-06-26T04:39:58;8.70;;;5.50;;
5157;SDS011;2598;52.364;9.772;2023-06-26T04:42:24;6.90;;;5.07;;
5157;SDS011;2598;52.364;9.772;2023-06-26T04:44:50;8.50;;;5.07;;
5157;SDS011;2598;52.364;9.772;2023-06-26T04:47:16;8.57;;;5.90;;
5157;SDS011;2598;52.364;9.772;2023-06-26T04:49:42;7.77;;;5.50;;
5157;SDS011;2598;52.364;9.772;2023-06-26T04:52:10;7.60;;;5.00;;
5157;SDS011;2598;52.364;9.772;2023-06-26T04:54:38;10.73;;;6.10;;
5157;SDS011;2598;52.364;9.772;2023-06-26T04:57:04;9.00;;;5.93;;
5157;SDS011;2598;52.364;9.772;2023-06-26T04:59:30;8.53;;;4.60;;
5157;SDS011;2598;52.364;9.772;2023-06-26T05:01:56;6.33;;;4.37;;
5157;SDS011;2598;52.364;9.772;2023-06-26T05:04:22;7.63;;;5.33;;
5157;SDS011;2598;52.364;9.772;2023-06-26T05:06:48;7.80;;;5.40;;
5157;SDS011;2598;52.364;9.772;2023-06-26T05:09:14;7.47;;;4.60;;
5157;SDS011;2598;52.364;9.772;2023-06-26T05:11:40;9.90;;;5.13;;
5157;SDS011;2598;52.364;9.772;2023-06-26T05:14:06;8.53;;;5.47;;
5157;SDS011;2598;52.364;9.772;2023-06-26T05:16:32;8.50;;;5.30;;
5157;SDS011;2598;52.364;9.772;2023-06-26T05:18:59;8.60;;;5.43;;
5157;SDS011;2598;52.364;9.772;2023-06-26T05:21:25;8.47;;;5.37;;
5157;SDS011;2598;52.364;9.772;2023-06-26T05:23:51;8.90;;;5.03;;
5157;SDS011;2598;52.364;9.772;2023-06-26T05:26:17;8.63;;;5.40;;
5157;SDS011;2598;52.364;9.772;2023-06-26T05:28:43;8.40;;;5.33;;
5157;SDS011;2598;52.364;9.772;2023-06-26T05:31:13;8.27;;;5.77;;
5157;SDS011;2598;52.364;9.772;2023-06-26T05:33:39;8.27;;;5.30;;
5157;SDS011;2598;52.364;9.772;2023-06-26T05:36:07;8.63;;;4.47;;
5157;SDS011;2598;52.364;9.772;2023-06-26T05:38:33;7.50;;;4.53;;
5157;SDS011;2598;52.364;9.772;2023-06-26T05:40:59;8.90;;;5.10;;
5157;SDS011;2598;52.364;9.772;2023-06-26T05:43:25;9.10;;;5.33;;
5157;SDS011;2598;52.364;9.772;2023-06-26T05:45:51;7.70;;;5.00;;
5157;SDS011;2598;52.364;9.772;2023-06-26T05:48:17;9.87;;;5.33;;
5157;SDS011;2598;52.364;9.772;2023-06-26T05:50:43;11.03;;;5.50;;
5157;SDS011;2598;52.364;9.772;2023-06-26T05:53:10;8.90;;;5.60;;
5157;SDS011;2598;52.364;9.772;2023-06-26T05:55:36;13.93;;;5.60;;
5157;SDS011;2598;52.364;9.772;2023-06-26T05:58:02;7.73;;;5.07;;
5157;SDS011;2598;52.364;9.772;2023-06-26T06:00:28;7.93;;;5.30;;
5157;SDS011;2598;52.364;9.772;2023-06-26T06:02:54;7.77;;;5.00;;
5157;SDS011;2598;52.364;9.772;2023-06-26T06:05:21;14.70;;;5.40;;
5157;SDS011;2598;52.364;9.772;2023-06-26T06:07:47;8.97;;;5.03;;
5157;SDS011;2598;52.364;9.772;2023-06-26T06:10:13;7.00;;;4.93;;
5157;SDS011;2598;52.364;9.772;2023-06-26T06:12:39;9.30;;;5.43;;
5157;SDS011;2598;52.364;9.772;2023-06-26T06:15:05;9.43;;;5.40;;
5157;SDS011;2598;52.364;9.772;2023-06-26T06:17:31;8.83;;;6.27;;
5157;SDS011;2598;52.364;9.772;2023-06-26T06:19:57;8.47;;;5.57;;
5157;SDS011;2598;52.364;9.772;2023-06-26T06:22:23;8.50;;;5.20;;
5157;SDS011;2598;52.364;9.772;2023-06-26T06:24:49;9.30;;;5.50;;
5157;SDS011;2598;52.364;9.772;2023-06-26T06:27:15;8.07;;;5.43;;
5157;SDS011;2598;52.364;9.772;2023-06-26T06:29:41;6.73;;;4.73;;
5157;SDS011;2598;52.364;9.772;2023-06-26T06:32:07;10.27;;;4.93;;
5157;SDS011;2598;52.364;9.772;2023-06-26T06:34:33;8.23;;;5.90;;
5157;SDS011;2598;52.364;9.772;2023-06-26T06:36:59;9.30;;;5.43;;
5157;SDS011;2598;52.364;9.772;2023-06-26T06:39:25;8.97;;;5.93;;
5157;SDS011;2598;52.364;9.772;2023-06-26T06:41:51;7.23;;;5.13;;
5157;SDS011;2598;52.364;9.772;2023-06-26T06:44:17;7.83;;;5.63;;
5157;SDS011;2598;52.364;9.772;2023-06-26T06:46:43;9.23;;;5.20;;
5157;SDS011;2598;52.364;9.772;2023-06-26T06:49:09;8.13;;;5.90;;
5157;SDS011;2598;52.364;9.772;2023-06-26T06:51:35;9.60;;;6.80;;
5157;SDS011;2598;52.364;9.772;2023-06-26T06:54:01;8.67;;;5.70;;
5157;SDS011;2598;52.364;9.772;2023-06-26T06:56:27;7.77;;;5.50;;
5157;SDS011;2598;52.364;9.772;2023-06-26T06:58:53;8.30;;;6.03;;
5157;SDS011;2598;52.364;9.772;2023-06-26T07:01:19;7.67;;;5.43;;
5157;SDS011;2598;52.364;9.772;2023-06-26T07:03:45;8.70;;;6.20;;
5157;SDS011;2598;52.364;9.772;2023-06-26T07:06:11;10.33;;;5.57;;
5157;SDS011;2598;52.364;9.772;2023-06-26T07:08:37;11.60;;;6.23;;
5157;SDS011;2598;52.364;9.772;2023-06-26T07:11:03;8.67;;;6.40;;
5157;SDS011;2598;52.364;9.772;2023-06-26T07:13:29;10.50;;;6.40;;
5157;SDS011;2598;52.364;9.772;2023-06-26T07:15:55;10.20;;;5.73;;
5157;SDS011;2598;52.364;9.772;2023-06-26T07:18:21;7.10;;;5.23;;
5157;SDS011;2598;52.364;9.772;2023-06-26T07:20:47;10.60;;;6.57;;
5157;SDS011;2598;52.364;9.772;2023-06-26T07:23:13;6.97;;;5.00;;
5157;SDS011;2598;52.364;9.772;2023-06-26T07:25:39;9.83;;;5.50;;
5157;SDS011;2598;52.364;9.772;2023-06-26T07:28:09;8.10;;;6.10;;
5157;SDS011;2598;52.364;9.772;2023-06-26T07:30:35;8.80;;;6.27;;
5157;SDS011;2598;52.364;9.772;2023-06-26T07:33:01;10.53;;;6.03;;
5157;SDS011;2598;52.364;9.772;2023-06-26T07:35:27;9.00;;;6.23;;
5157;SDS011;2598;52.364;9.772;2023-06-26T07:37:53;8.00;;;5.97;;
5157;SDS011;2598;52.364;9.772;2023-06-26T07:40:19;9.67;;;5.93;;
5157;SDS011;2598;52.364;9.772;2023-06-26T07:42:45;9.00;;;5.83;;
5157;SDS011;2598;52.364;9.772;2023-06-26T07:45:12;8.70;;;5.83;;
5157;SDS011;2598;52.364;9.772;2023-06-26T07:47:38;9.30;;;6.43;;
5157;SDS011;2598;52.364;9.772;2023-06-26T07:50:04;10.10;;;6.03;;
5157;SDS011;2598;52.364;9.772;2023-06-26T07:52:30;8.50;;;5.70;;
5157;SDS011;2598;52.364;9.772;2023-06-26T07:54:56;11.33;;;7.57;;
5157;SDS011;2598;52.364;9.772;2023-06-26T07:57:22;8.10;;;5.70;;
5157;SDS011;2598;52.364;9.772;2023-06-26T07:59:48;8.80;;;5.93;;
5157;SDS011;2598;52.364;9.772;2023-06-26T08:02:14;10.83;;;6.90;;
5157;SDS011;2598;52.364;9.772;2023-06-26T08:04:40;9.50;;;5.90;;
5157;SDS011;2598;52.364;9.772;2023-06-26T08:07:06;9.07;;;6.53;;
5157;SDS011;2598;52.364;9.772;2023-06-26T08:09:32;8.10;;;6.07;;
5157;SDS011;2598;52.364;9.772;2023-06-26T08:11:58;10.67;;;6.57;;
5157;SDS011;2598;52.364;9.772;2023-06-26T08:14:24;10.60;;;6.53;;
5157;SDS011;2598;52.364;9.772;2023-06-26T08:16:50;9.23;;;6.27;;
5157;SDS011;2598;52.364;9.772;2023-06-26T08:19:16;8.97;;;6.90;;
5157;SDS011;2598;52.364;9.772;2023-06-26T08:21:45;9.73;;;6.27;;
5157;SDS011;2598;52.364;9.772;2023-06-26T08:24:12;9.10;;;6.60;;
5157;SDS011;2598;52.364;9.772;2023-06-26T08:26:38;7.70;;;5.90;;
5157;SDS011;2598;52.364;9.772;2023-06-26T08:29:04;8.97;;;6.83;;
5157;SDS011;2598;52.364;9.772;2023-06-26T08:31:32;9.90;;;6.23;;
5157;SDS011;2598;52.364;9.772;2023-06-26T08:33:59;9.30;;;6.90;;
5157;SDS011;2598;52.364;9.772;2023-06-26T08:36:25;10.30;;;7.00;;
5157;SDS011;2598;52.364;9.772;2023-06-26T08:38:51;8.73;;;6.47;;
5157;SDS011;2598;52.364;9.772;2023-06-26T08:41:16;8.37;;;5.80;;
5157;SDS011;2598;52.364;9.772;2023-06-26T08:43:42;9.90;;;6.50;;
5157;SDS011;2598;52.364;9.772;2023-06-26T08:46:08;10.70;;;6.40;;
5157;SDS011;2598;52.364;9.772;2023-06-26T08:48:34;13.60;;;7.17;;
5157;SDS011;2598;52.364;9.772;2023-06-26T08:51:04;10.77;;;6.70;;
5157;SDS011;2598;52.364;9.772;2023-06-26T08:53:40;12.47;;;6.90;;
5157;SDS011;2598;52.364;9.772;2023-06-26T08:56:08;8.53;;;6.37;;
5157;SDS011;2598;52.364;9.772;2023-06-26T08:58:35;8.90;;;6.10;;
5157;SDS011;2598;52.364;9.772;2023-06-26T09:01:02;9.27;;;6.67;;
5157;SDS011;2598;52.364;9.772;2023-06-26T09:03:30;9.67;;;6.80;;
5157;SDS011;2598;52.364;9.772;2023-06-26T09:05:56;9.50;;;6.70;;
5157;SDS011;2598;52.364;9.772;2023-06-26T09:08:22;10.93;;;8.20;;
5157;SDS011;2598;52.364;9.772;2023-06-26T09:10:48;11.30;;;6.90;;
5157;SDS011;2598;52.364;9.772;2023-06-26T09:13:14;9.07;;;6.90;;
5157;SDS011;2598;52.364;9.772;2023-06-26T09:15:43;9.40;;;7.50;;
5157;SDS011;2598;52.364;9.772;2023-06-26T09:18:09;9.60;;;7.23;;
5157;SDS011;2598;52.364;9.772;2023-06-26T09:20:35;10.70;;;7.47;;
5157;SDS011;2598;52.364;9.772;2023-06-26T09:23:01;13.20;;;8.67;;
5157;SDS011;2598;52.364;9.772;2023-06-26T09:25:28;15.57;;;8.73;;
5157;SDS011;2598;52.364;9.772;2023-06-26T09:27:54;14.40;;;7.83;;
5157;SDS011;2598;52.364;9.772;2023-06-26T09:30:20;11.40;;;8.40;;
5157;SDS011;2598;52.364;9.772;2023-06-26T09:32:47;11.33;;;8.13;;
5157;SDS011;2598;52.364;9.772;2023-06-26T09:35:14;14.63;;;9.50;;
5157;SDS011;2598;52.364;9.772;2023-06-26T09:37:40;10.47;;;7.00;;
5157;SDS011;2598;52.364;9.772;2023-06-26T09:40:06;11.70;;;7.57;;
5157;SDS011;2598;52.364;9.772;2023-06-26T09:42:33;12.10;;;8.17;;
5157;SDS011;2598;52.364;9.772;2023-06-26T09:44:59;14.10;;;9.30;;
5157;SDS011;2598;52.364;9.772;2023-06-26T09:47:25;12.33;;;7.93;;
5157;SDS011;2598;52.364;9.772;2023-06-26T09:49:51;13.57;;;7.83;;
5157;SDS011;2598;52.364;9.772;2023-06-26T09:52:17;12.73;;;9.80;;
5157;SDS011;2598;52.364;9.772;2023-06-26T09:54:44;14.03;;;8.87;;
5157;SDS011;2598;52.364;9.772;2023-06-26T09:57:11;15.27;;;9.10;;
5157;SDS011;2598;52.364;9.772;2023-06-26T09:59:37;20.40;;;9.60;;
5157;SDS011;2598;52.364;9.772;2023-06-26T10:02:04;15.57;;;8.93;;
5157;SDS011;2598;52.364;9.772;2023-06-26T10:04:30;16.23;;;8.90;;
5157;SDS011;2598;52.364;9.772;2023-06-26T10:06:56;13.27;;;8.17;;
5157;SDS011;2598;52.364;9.772;2023-06-26T10:09:24;11.43;;;7.50;;
5157;SDS011;2598;52.364;9.772;2023-06-26T10:11:56;14.63;;;8.47;;
5157;SDS011;2598;52.364;9.772;2023-06-26T10:14:25;12.03;;;8.30;;
5157;SDS011;2598;52.364;9.772;2023-06-26T10:16:51;11.93;;;8.93;;
5157;SDS011;2598;52.364;9.772;2023-06-26T10:19:18;14.20;;;9.60;;
5157;SDS011;2598;52.364;9.772;2023-06-26T10:21:52;17.00;;;9.83;;
5157;SDS011;2598;52.364;9.772;2023-06-26T10:24:19;13.23;;;8.70;;
5157;SDS011;2598;52.364;9.772;2023-06-26T10:26:45;12.60;;;9.83;;
5157;SDS011;2598;52.364;9.772;2023-06-26T10:29:11;15.03;;;10.00;;
5157;SDS011;2598;52.364;9.772;2023-06-26T10:31:39;16.00;;;10.40;;
5157;SDS011;2598;52.364;9.772;2023-06-26T10:34:05;19.93;;;9.30;;
5157;SDS011;2598;52.364;9.772;2023-06-26T10:36:31;14.10;;;9.80;;
5157;SDS011;2598;52.364;9.772;2023-06-26T10:38:59;15.93;;;9.07;;
5157;SDS011;2598;52.364;9.772;2023-06-26T10:41:28;13.20;;;9.30;;
5157;SDS011;2598;52.364;9.772;2023-06-26T10:46:27;12.87;;;9.13;;
5157;SDS011;2598;52.364;9.772;2023-06-26T10:48:58;12.27;;;8.13;;
5157;SDS011;2598;52.364;9.772;2023-06-26T10:51:25;14.97;;;8.33;;
5157;SDS011;2598;52.364;9.772;2023-06-26T10:53:57;14.13;;;9.07;;
5157;SDS011;2598;52.364;9.772;2023-06-26T10:56:40;12.63;;;8.40;;
5157;SDS011;2598;52.364;9.772;2023-06-26T10:59:13;14.20;;;9.00;;
5157;SDS011;2598;52.364;9.772;2023-06-26T11:01:41;15.30;;;8.83;;
5157;SDS011;2598;52.364;9.772;2023-06-26T11:04:10;13.33;;;8.63;;
5157;SDS011;2598;52.364;9.772;2023-06-26T11:06:36;18.37;;;9.60;;
5157;SDS011;2598;52.364;9.772;2023-06-26T11:09:09;14.93;;;8.60;;
5157;SDS011;2598;52.364;9.772;2023-06-26T11:14:20;21.37;;;9.90;;
5157;SDS011;2598;52.364;9.772;2023-06-26T11:16:46;12.77;;;8.90;;
5157;SDS011;2598;52.364;9.772;2023-06-26T11:19:13;13.57;;;9.67;;
5157;SDS011;2598;52.364;9.772;2023-06-26T11:21:39;22.13;;;9.53;;
5157;SDS011;2598;52.364;9.772;2023-06-26T11:24:06;16.43;;;10.50;;
5157;SDS011;2598;52.364;9.772;2023-06-26T11:26:37;17.50;;;10.03;;
5157;SDS011;2598;52.364;9.772;2023-06-26T11:29:03;17.50;;;10.00;;
5157;SDS011;2598;52.364;9.772;2023-06-26T11:31:30;12.93;;;9.40;;
5157;SDS011;2598;52.364;9.772;2023-06-26T11:34:00;12.40;;;8.10;;
5157;SDS011;2598;52.364;9.772;2023-06-26T11:36:27;14.30;;;8.80;;
5157;SDS011;2598;52.364;9.772;2023-06-26T11:39:00;12.27;;;8.43;;
5157;SDS011;2598;52.364;9.772;2023-06-26T11:41:28;11.87;;;8.63;;
5157;SDS011;2598;52.364;9.772;2023-06-26T11:43:54;11.27;;;8.20;;
5157;SDS011;2598;52.364;9.772;2023-06-26T11:46:21;15.03;;;8.10;;
5157;SDS011;2598;52.364;9.772;2023-06-26T11:48:47;15.17;;;8.67;;
5157;SDS011;2598;52.364;9.772;2023-06-26T11:51:14;13.10;;;8.30;;
5157;SDS011;2598;52.364;9.772;2023-06-26T11:53:41;11.83;;;7.80;;
5157;SDS011;2598;52.364;9.772;2023-06-26T11:56:08;12.23;;;7.13;;
5157;SDS011;2598;52.364;9.772;2023-06-26T11:58:34;15.63;;;6.20;;
5157;SDS011;2598;52.364;9.772;2023-06-26T12:01:00;10.17;;;7.30;;
5157;SDS011;2598;52.364;9.772;2023-06-26T12:03:26;11.80;;;6.90;;
5157;SDS011;2598;52.364;9.772;2023-06-26T12:05:52;16.60;;;6.80;;
5157;SDS011;2598;52.364;9.772;2023-06-26T12:08:18;11.10;;;5.73;;
5157;SDS011;2598;52.364;9.772;2023-06-26T12:10:44;12.90;;;5.27;;
5157;SDS011;2598;52.364;9.772;2023-06-26T12:13:10;9.17;;;4.77;;
5157;SDS011;2598;52.364;9.772;2023-06-26T12:15:36;11.93;;;4.90;;
5157;SDS011;2598;52.364;9.772;2023-06-26T12:18:09;8.73;;;4.37;;
5157;SDS011;2598;52.364;9.772;2023-06-26T12:20:39;9.87;;;5.00;;
5157;SDS011;2598;52.364;9.772;2023-06-26T12:23:11;10.93;;;3.93;;
5157;SDS011;2598;52.364;9.772;2023-06-26T12:25:36;7.00;;;4.00;;
5157;SDS011;2598;52.364;9.772;2023-06-26T12:28:02;8.13;;;4.00;;
5157;SDS011;2598;52.364;9.772;2023-06-26T12:30:28;8.87;;;3.70;;
5157;SDS011;2598;52.364;9.772;2023-06-26T12:32:54;7.13;;;4.07;;
5157;SDS011;2598;52.364;9.772;2023-06-26T12:35:21;10.37;;;4.57;;
5157;SDS011;2598;52.364;9.772;2023-06-26T12:37:47;7.80;;;4.13;;
5157;SDS011;2598;52.364;9.772;2023-06-26T12:40:16;7.50;;;3.90;;
5157;SDS011;2598;52.364;9.772;2023-06-26T12:42:43;8.93;;;4.20;;
5157;SDS011;2598;52.364;9.772;2023-06-26T12:45:13;7.90;;;3.80;;
5157;SDS011;2598;52.364;9.772;2023-06-26T12:47:39;6.70;;;3.90;;
5157;SDS011;2598;52.364;9.772;2023-06-26T12:50:06;6.77;;;3.73;;
5157;SDS011;2598;52.364;9.772;2023-06-26T12:52:32;9.43;;;3.10;;
5157;SDS011;2598;52.364;9.772;2023-06-26T12:54:58;7.73;;;4.03;;
5157;SDS011;2598;52.364;9.772;2023-06-26T12:57:25;9.70;;;4.10;;
5157;SDS011;2598;52.364;9.772;2023-06-26T12:59:51;6.73;;;3.50;;
5157;SDS011;2598;52.364;9.772;2023-06-26T13:02:17;8.73;;;2.90;;
5157;SDS011;2598;52.364;9.772;2023-06-26T13:04:43;8.00;;;3.20;;
5157;SDS011;2598;52.364;9.772;2023-06-26T13:07:09;11.23;;;3.60;;
5157;SDS011;2598;52.364;9.772;2023-06-26T13:09:36;6.30;;;3.17;;
5157;SDS011;2598;52.364;9.772;2023-06-26T13:12:03;10.43;;;3.13;;
5157;SDS011;2598;52.364;9.772;2023-06-26T13:14:30;5.83;;;2.50;;
5157;SDS011;2598;52.364;9.772;2023-06-26T13:16:56;10.50;;;2.80;;
5157;SDS011;2598;52.364;9.772;2023-06-26T13:19:21;7.80;;;3.17;;
5157;SDS011;2598;52.364;9.772;2023-06-26T13:21:47;8.37;;;3.07;;
5157;SDS011;2598;52.364;9.772;2023-06-26T13:24:13;8.17;;;2.53;;
5157;SDS011;2598;52.364;9.772;2023-06-26T13:26:40;9.00;;;3.20;;
5157;SDS011;2598;52.364;9.772;2023-06-26T13:29:06;6.53;;;2.90;;
5157;SDS011;2598;52.364;9.772;2023-06-26T13:31:32;4.90;;;2.70;;
5157;SDS011;2598;52.364;9.772;2023-06-26T13:33:58;8.37;;;2.80;;
5157;SDS011;2598;52.364;9.772;2023-06-26T13:36:24;8.57;;;2.60;;
5157;SDS011;2598;52.364;9.772;2023-06-26T13:38:51;6.20;;;2.87;;
5157;SDS011;2598;52.364;9.772;2023-06-26T13:41:23;7.00;;;2.83;;
5157;SDS011;2598;52.364;9.772;2023-06-26T13:43:49;6.73;;;2.57;;
5157;SDS011;2598;52.364;9.772;2023-06-26T13:46:15;7.80;;;2.57;;
5157;SDS011;2598;52.364;9.772;2023-06-26T13:48:42;8.40;;;2.70;;
5157;SDS011;2598;52.364;9.772;2023-06-26T13:51:08;6.67;;;2.87;;
5157;SDS011;2598;52.364;9.772;2023-06-26T13:53:34;9.03;;;2.60;;
5157;SDS011;2598;52.364;9.772;2023-06-26T13:56:00;6.27;;;2.63;;
5157;SDS011;2598;52.364;9.772;2023-06-26T13:58:26;7.70;;;2.70;;
5157;SDS011;2598;52.364;9.772;2023-06-26T14:00:54;6.40;;;2.57;;
5157;SDS011;2598;52.364;9.772;2023-06-26T14:03:20;6.30;;;2.90;;
5157;SDS011;2598;52.364;9.772;2023-06-26T14:05:46;5.07;;;2.53;;
5157;SDS011;2598;52.364;9.772;2023-06-26T14:08:12;7.80;;;2.80;;
5157;SDS011;2598;52.364;9.772;2023-06-26T14:10:38;7.73;;;2.60;;
5157;SDS011;2598;52.364;9.772;2023-06-26T14:13:04;7.57;;;2.93;;
5157;SDS011;2598;52.364;9.772;2023-06-26T14:15:30;6.13;;;2.47;;
5157;SDS011;2598;52.364;9.772;2023-06-26T14:17:56;7.27;;;2.37;;
5157;SDS011;2598;52.364;9.772;2023-06-26T14:20:23;5.93;;;2.23;;
5157;SDS011;2598;52.364;9.772;2023-06-26T14:22:49;6.40;;;2.40;;
5157;SDS011;2598;52.364;9.772;2023-06-26T14:25:16;6.87;;;2.50;;
5157;SDS011;2598;52.364;9.772;2023-06-26T14:27:41;5.97;;;2.23;;
5157;SDS011;2598;52.364;9.772;2023-06-26T14:30:08;10.10;;;2.40;;
5157;SDS011;2598;52.364;9.772;2023-06-26T14:32:34;4.70;;;2.13;;
5157;SDS011;2598;52.364;9.772;2023-06-26T14:35:01;6.23;;;2.13;;
5157;SDS011;2598;52.364;9.772;2023-06-26T14:37:29;8.53;;;2.50;;
5157;SDS011;2598;52.364;9.772;2023-06-26T14:39:55;7.50;;;2.87;;
5157;SDS011;2598;52.364;9.772;2023-06-26T14:42:21;9.77;;;2.43;;
5157;SDS011;2598;52.364;9.772;2023-06-26T14:44:46;4.80;;;2.30;;
5157;SDS011;2598;52.364;9.772;2023-06-26T14:47:15;5.87;;;1.93;;
5157;SDS011;2598;52.364;9.772;2023-06-26T14:49:40;9.07;;;3.00;;
5157;SDS011;2598;52.364;9.772;2023-06-26T14:52:06;6.63;;;2.33;;
5157;SDS011;2598;52.364;9.772;2023-06-26T14:54:33;5.63;;;2.10;;
5157;SDS011;2598;52.364;9.772;2023-06-26T14:57:01;7.30;;;2.40;;
5157;SDS011;2598;52.364;9.772;2023-06-26T14:59:27;6.03;;;2.40;;
5157;SDS011;2598;52.364;9.772;2023-06-26T15:01:53;4.90;;;1.93;;
5157;SDS011;2598;52.364;9.772;2023-06-26T15:04:18;8.07;;;3.13;;
5157;SDS011;2598;52.364;9.772;2023-06-26T15:06:44;5.40;;;2.13;;
5157;SDS011;2598;52.364;9.772;2023-06-26T15:09:10;6.60;;;2.33;;
5157;SDS011;2598;52.364;9.772;2023-06-26T15:11:36;6.13;;;1.90;;
5157;SDS011;2598;52.364;9.772;2023-06-26T15:14:02;7.30;;;2.53;;
5157;SDS011;2598;52.364;9.772;2023-06-26T15:16:28;4.60;;;2.07;;
5157;SDS011;2598;52.364;9.772;2023-06-26T15:18:54;6.40;;;2.33;;